Latest Coastal Weather Observations for Cape Borda

IDS60701

Issued at 5:31 am CST Wednesday 1 June 2016 (issued every 10 minutes, with the page automatically refreshed every 10 minutes)

About coastal observations | Map of coastal stations | Coastal observations for SA | Marine services | Other Formats
Station Details ID: 022823 Name: CAPE BORDA Lat: -35.75 Lon: 136.60 Height: 158.0 m
Data from the previous 72 hours. | See also: Recent months at Cape Borda
Date/Time
CST
Temp

°C
Wind Pressure Rain
since 9am
mm
Weather Cloud Vis
km
Sea
Height
m
Swell
Dir
 
Speed
knots
Gust
knots
hPa Trend Height
m
Period
s
Dir
01/05:30am 12.5 NE 7 8 1022.8 - 1.6 - - - - - - -
01/05:00am 12.0 ENE 7 9 1022.5 - 1.6 - - - - - - -
01/04:30am 12.0 ENE 7 8 1022.4 - 1.6 - - - - - - -
01/04:00am 12.1 ENE 8 9 1022.4 - 1.6 - - - - - - -
01/03:30am 11.9 ENE 8 9 1022.4 - 1.6 - - - - - - -
01/03:00am 11.9 ENE 8 9 1022.6 - 1.6 - - - - - - -
01/02:30am 11.8 ENE 8 9 1022.4 - 1.6 - - - - - - -
01/02:00am 11.8 ENE 8 9 1022.4 - 1.6 - - - - - - -
01/01:30am 11.3 ENE 7 8 1022.3 - 1.6 - - - - - - -
01/01:00am 10.7 E 7 8 1022.5 - 1.6 - - - - - - -
01/12:30am 10.9 E 7 8 1022.6 - 1.6 - - - - - - -
01/12:00am 11.2 E 8 8 1022.7 - 1.6 - - - - - - -
 
Date/Time
CST
Temp

°C
Wind Pressure Rain
since 9am
mm
Weather Cloud Vis
km
Sea
Height
m
Swell
Dir
 
Speed
knots
Gust
knots
hPa Trend Height
m
Period
s
Dir
31/11:30pm 11.7 ENE 6 7 1022.8 - 1.4 - - - - - - -
31/11:00pm 12.4 NNE 6 8 1022.7 - 1.4 - - - - - - -
31/10:30pm 12.0 NNE 6 7 1022.7 - 1.4 - - - - - - -
31/10:00pm 11.9 NNE 6 7 1022.8 - 1.4 - - - - - - -
31/09:30pm 12.1 N 6 7 1022.9 - 1.4 - - - - - - -
31/09:00pm 12.5 N 6 8 1022.9 - 1.4 - - - - - - -
31/08:30pm 12.9 NNW 6 7 1022.8 - 1.4 - - - - - - -
31/08:00pm 13.3 WNW 9 11 1022.8 - 1.4 - - - - - - -
31/07:30pm 13.2 NNW 7 10 1022.7 - 1.0 - - - - - - -
31/07:00pm 13.2 WNW 10 13 1022.4 - 0.2 - - - - - - -
31/06:30pm 14.2 NNW 7 13 1022.1 - 0.0 - - - - - - -
31/06:00pm 14.8 N 7 10 1021.8 - 0.0 - - - - - - -
31/05:30pm 14.8 N 8 10 1021.5 - 0.0 - - - - - - -
31/05:00pm 14.7 N 7 11 1021.3 - 0.0 - - - - - - -
31/04:30pm 14.8 N 9 11 1021.1 - 0.0 - - - - - - -
31/04:00pm 14.9 N 8 11 1020.8 - 0.0 - - - - - - -
31/03:30pm 15.9 N 7 11 1020.5 - 0.0 - - - - - - -
31/03:00pm 16.7 N 9 11 1020.5 R 0.0 Fine Mostly clear 25 <0.5 5.0 9 SW
31/02:30pm 17.0 N 10 12 1020.4 - 0.0 - - - - - - -
31/02:00pm 16.9 N 11 14 1020.6 - 0.0 - - - - - - -
31/01:30pm 17.1 N 12 16 1020.8 - 0.0 - - - - - - -
31/01:00pm 17.1 NNW 11 15 1020.9 - 0.0 - - - - - - -
31/12:30pm 16.7 NNW 11 15 1021.1 - 0.0 - - - - - - -
31/12:00pm 16.8 NNW 11 15 1021.3 - 0.0 - - - - - - -
31/11:30am 16.5 N 11 14 1021.6 - 0.0 - - - - - - -
31/11:00am 16.6 N 11 16 1021.8 - 0.0 - - - - - - -
31/10:30am 15.8 N 12 18 1021.8 - 0.0 - - - - - - -
31/10:00am 16.0 N 12 16 1021.8 - 0.0 - - - - - - -
31/09:30am 15.7 N 9 14 1021.6 - 0.0 - - - - - - -
31/09:00am 15.0 N 11 16 1021.4 R 1.2 Haze Partly cloudy 20 1 5.0 9 SW
31/08:30am 15.0 N 11 15 1021.3 - 1.2 - - - - - - -
31/08:00am 14.4 N 10 13 1020.8 - 1.2 - - - - - - -
31/07:30am 14.2 N 10 13 1020.5 - 1.2 - - - - - - -
31/07:00am 14.1 N 11 16 1020.2 - 1.2 - - - - - - -
31/06:30am 13.9 N 8 12 1020.0 - 1.2 - - - - - - -
31/06:00am 14.0 N 8 11 1019.9 - 1.2 - - - - - - -
31/05:30am 14.1 N 9 13 1019.7 - 1.2 - - - - - - -
31/05:00am 14.1 N 8 11 1019.5 - 1.2 - - - - - - -
31/04:30am 14.0 N 7 9 1019.2 - 1.2 - - - - - - -
31/04:00am 14.1 N 7 10 1019.2 - 1.2 - - - - - - -
31/03:30am 14.1 N 6 9 1019.1 - 1.2 - - - - - - -
31/03:00am 14.0 N 6 9 1019.2 - 1.2 - - - - - - -
31/02:30am 14.4 NNE 7 9 1019.2 - 1.2 - - - - - - -
31/02:00am 14.3 NNE 8 11 1019.1 - 1.2 - - - - - - -
31/01:30am 14.2 N 7 11 1019.1 - 1.2 - - - - - - -
31/01:00am 14.1 NNE 9 13 1018.9 - 1.2 - - - - - - -
31/12:30am 14.6 NNE 9 12 1019.1 - 1.2 - - - - - - -
31/12:00am 14.4 NNE 8 10 1019.2 - 1.2 - - - - - - -
 
Date/Time
CST
Temp

°C
Wind Pressure Rain
since 9am
mm
Weather Cloud Vis
km
Sea
Height
m
Swell
Dir
 
Speed
knots
Gust
knots
hPa Trend Height
m
Period
s
Dir
30/11:30pm 14.4 N 8 11 1019.2 - 1.2 - - - - - - -
30/11:00pm 14.6 N 10 14 1019.3 - 1.2 - - - - - - -
30/10:30pm 14.7 N 12 17 1019.3 - 1.2 - - - - - - -
30/10:00pm 14.5 N 13 16 1019.2 - 1.2 - - - - - - -
30/09:30pm 14.5 N 13 19 1019.2 - 1.2 - - - - - - -
30/09:00pm 14.1 NNE 10 15 1019.0 - 0.8 - - - - - - -
30/08:30pm 13.8 N 8 13 1019.1 - 0.8 - - - - - - -
30/08:00pm 13.2 N 10 16 1019.1 - 0.8 - - - - - - -
30/07:30pm 14.6 N 10 14 1018.7 - 0.6 - - - - - - -
30/07:00pm 15.0 N 9 13 1018.3 - 0.6 - - - - - - -
30/06:30pm 15.0 N 9 13 1018.0 - 0.6 - - - - - - -
30/06:00pm 14.7 N 8 11 1017.7 - 0.6 - - - - - - -
30/05:30pm 14.6 N 9 12 1017.3 - 0.6 - - - - - - -
30/05:00pm 14.8 N 9 15 1017.0 - 0.6 - - - - - - -
30/04:30pm 15.3 N 11 15 1016.6 - 0.6 - - - - - - -
30/04:00pm 15.1 N 11 15 1016.4 - 0.6 - - - - - - -
30/03:30pm 15.0 N 8 11 1016.0 - 0.6 - - - - - - -
30/03:00pm 14.8 N 8 12 1015.8 R 0.6 Distant precip. Mostly cloudy 18 1 3.8 8 SW
30/02:30pm 15.8 NNW 11 14 1015.8 - 0.0 - - - - - - -
30/02:00pm 16.1 NNW 11 15 1015.6 - 0.0 - - - - - - -
30/01:30pm 16.7 NNW 10 14 1015.7 - 0.0 - - - - - - -
30/01:00pm 16.7 NNW 11 16 1015.8 - 0.0 - - - - - - -
30/12:30pm 16.8 N 9 12 1015.9 - 0.0 - - - - - - -
30/12:00pm 15.8 NNW 10 14 1016.1 - 0.0 - - - - - - -
30/11:30am 16.2 N 10 14 1016.4 - 0.0 - - - - - - -
30/11:00am 16.2 NNW 9 13 1016.4 - 0.0 - - - - - - -
30/10:30am 16.1 N 9 15 1016.3 - 0.0 - - - - - - -
30/10:00am 15.5 N 11 16 1016.3 - 0.0 - - - - - - -
30/09:30am 15.0 N 12 19 1016.2 - 0.0 - - - - - - -
30/09:00am 14.6 N 15 22 1015.9 S 4.4 Haze Partly cloudy 18 1 4.0 8 SW
30/08:30am 14.8 N 15 21 1015.7 - 4.4 - - - - - - -
30/08:00am 14.1 NNE 13 17 1015.6 - 4.4 - - - - - - -
30/07:30am 13.8 NNE 13 18 1015.4 - 4.4 - - - - - - -
30/07:00am 13.7 N 15 21 1015.2 - 4.4 - - - - - - -
30/06:30am 13.3 NNE 13 20 1015.0 - 4.4 - - - - - - -
30/06:00am 13.2 NNE 13 18 1014.7 - 4.2 - - - - - - -
30/05:30am 13.0 NNE 15 21 1014.8 - 4.0 - - - - - - -
30/05:00am 13.5 NNE 14 19 1014.8 - 3.4 - - - - - - -
30/04:30am 13.6 NNE 12 20 1014.8 - 3.2 - - - - - - -
30/04:00am 13.9 N 13 18 1015.0 - 1.8 - - - - - - -
30/03:30am 14.4 N 16 22 1014.8 - 1.0 - - - - - - -
30/03:00am 14.3 NNE 15 22 1014.7 - 1.0 - - - - - - -
30/02:41am 13.6 N 15 25 1014.7 - 1.0 - - - - - - -
30/02:30am 14.2 N 18 24 1014.9 - 0.8 - - - - - - -
30/02:00am 14.6 NNE 13 19 1015.0 - 0.6 - - - - - - -
30/01:30am 14.5 NNE 12 18 1014.9 - 0.6 - - - - - - -
30/01:00am 14.9 NNE 13 17 1015.2 - 0.6 - - - - - - -
30/12:30am 14.5 N 11 16 1015.4 - 0.6 - - - - - - -
30/12:00am 13.2 NNE 9 12 1015.4 - 0.6 - - - - - - -
 
Date/Time
CST
Temp

°C
Wind Pressure Rain
since 9am
mm
Weather Cloud Vis
km
Sea
Height
m
Swell
Dir
 
Speed
knots
Gust
knots
hPa Trend Height
m
Period
s
Dir
29/11:30pm 11.6 E 8 11 1015.8 - 0.6 - - - - - - -
29/11:00pm 11.5 E 6 9 1016.2 - 0.6 - - - - - - -
29/10:30pm 11.8 W 3 6 1016.2 - 0.6 - - - - - - -
29/10:00pm 13.5 NNW 16 21 1016.3 - 0.0 - - - - - - -
29/09:30pm 14.8 NNE 14 19 1015.8 - 0.0 - - - - - - -
29/09:00pm 14.6 NNE 16 23 1015.4 - 0.0 - - - - - - -
29/08:30pm 14.3 NNE 16 21 1015.7 - 0.0 - - - - - - -
29/08:00pm 14.4 NNE 16 23 1015.8 - 0.0 - - - - - - -
29/07:30pm 14.5 NNE 16 22 1015.5 - 0.0 - - - - - - -
29/07:00pm 14.5 NNE 15 21 1015.4 - 0.0 - - - - - - -
29/06:30pm 14.6 NNE 14 20 1015.4 - 0.0 - - - - - - -
29/06:00pm 14.4 NNE 13 19 1015.2 - 0.0 - - - - - - -
29/05:30pm 14.3 N 11 16 1015.1 - 0.0 - - - - - - -
29/05:00pm 14.1 N 14 19 1014.9 - 0.0 - - - - - - -
29/04:30pm 14.3 N 14 19 1014.7 - 0.0 - - - - - - -
29/04:00pm 15.2 N 14 20 1014.9 - 0.0 - - - - - - -
29/03:30pm 15.5 N 14 20 1014.8 - 0.0 - - - - - - -
29/03:00pm 15.5 N 14 20 1014.8 F 0.0 Fine Partly cloudy 25 1 4.1 8 SW
29/02:30pm 15.9 N 13 18 1015.0 - 0.0 - - - - - - -
29/02:00pm 15.3 N 13 17 1015.2 - 0.0 - - - - - - -
29/01:30pm 15.1 N 14 18 1015.3 - 0.0 - - - - - - -
29/01:00pm 15.6 N 13 19 1015.5 - 0.0 - - - - - - -
29/12:30pm 15.2 N 14 19 1015.8 - 0.0 - - - - - - -
29/12:00pm 14.0 NNE 14 20 1016.0 - 0.0 - - - - - - -
29/11:30am 14.0 NNE 13 19 1016.5 - 0.0 - - - - - - -
29/11:00am 14.2 NNE 13 19 1016.8 - 0.0 - - - - - - -
29/10:30am 13.8 NNE 11 17 1017.0 - 0.0 - - - - - - -
29/10:00am 14.0 NNE 13 20 1017.0 - 0.0 - - - - - - -
29/09:30am 13.9 NNE 13 17 1017.0 - 0.0 - - - - - - -
29/09:00am 13.3 NNE 12 17 1016.9 F 0.8 Fine Mostly cloudy 20 1 3.8 8 SW
29/08:30am 12.9 NNE 13 19 1017.0 - 0.8 - - - - - - -
29/08:00am 12.4 NNE 12 17 1016.8 - 0.8 - - - - - - -
29/07:30am 11.7 NE 11 17 1016.8 - 0.4 - - - - - - -
29/07:00am 12.5 NNE 10 16 1016.8 - 0.0 - - - - - - -
29/06:30am 12.7 NNE 11 15 1016.5 - 0.0 - - - - - - -
29/06:00am 12.5 NE 10 15 1016.6 - 0.0 - - - - - - -

Other Formats:

Comma delimited format used in spreadsheet applications
http://www.bom.gov.au/fwo/IDS60701/IDS60701.95805.axf

JavaScript Object Notation format (JSON) in row-major order
http://www.bom.gov.au/fwo/IDS60701/IDS60701.95805.json